Time;durP1;ratioP1;P1;durP2;ratioP2;P2;SDS_P1;SDS_P2;PMS_P1;PMS_P2;Temp;Humidity;BMP_temperature;BMP_pressure;BME280_temperature;BME280_humidity;BME280_pressure;Samples;Min_cycle;Max_cycle;Signal;HPM_P1;HPM_P2
2022/01/01 00:01:48;;;;;;;827.13;547.33;;;14.10;99.90;;;;;;5065801;28;20040;-45
2022/01/01 00:04:14;;;;;;;1230.05;706.72;;;13.90;99.90;;;;;;5081959;28;21057;-49
2022/01/01 00:06:40;;;;;;;451.17;287.42;;;13.80;99.90;;;;;;5072928;28;20040;-45
2022/01/01 00:09:06;;;;;;;384.50;230.50;;;13.70;99.90;;;;;;5085042;28;20060;-44
2022/01/01 00:11:32;;;;;;;302.33;174.98;;;13.60;99.90;;;;;;5092606;28;20086;-48
2022/01/01 00:13:58;;;;;;;408.85;234.88;;;13.50;99.90;;;;;;5050125;28;20040;-45
2022/01/01 00:16:24;;;;;;;309.55;174.07;;;13.40;99.90;;;;;;5089361;28;20055;-48
2022/01/01 00:18:50;;;;;;;317.17;173.70;;;13.30;99.90;;;;;;5074849;28;20050;-49
2022/01/01 00:21:16;;;;;;;323.35;178.50;;;13.20;99.90;;;;;;5079256;28;20079;-46
2022/01/01 00:23:42;;;;;;;233.32;127.45;;;13.20;99.90;;;;;;5049947;28;20081;-48
2022/01/01 00:26:08;;;;;;;567.70;359.23;;;13.10;99.90;;;;;;5039335;28;20040;-48
2022/01/01 00:28:35;;;;;;;923.25;528.92;;;13.00;99.90;;;;;;5093411;28;20463;-49
2022/01/01 00:31:01;;;;;;;524.97;291.00;;;12.90;99.90;;;;;;5091817;28;20040;-46
2022/01/01 00:33:29;;;;;;;165.38;86.90;;;12.80;99.90;;;;;;5085635;28;20534;-45
2022/01/01 00:35:56;;;;;;;99.47;50.53;;;12.70;99.90;;;;;;5045451;28;20040;-47
2022/01/01 00:38:22;;;;;;;292.33;114.43;;;12.60;99.90;;;;;;5075245;28;20048;-47
2022/01/01 00:40:48;;;;;;;374.35;149.02;;;12.50;99.90;;;;;;5079533;28;20390;-45
2022/01/01 00:43:13;;;;;;;152.65;57.35;;;12.40;99.90;;;;;;5042578;28;20501;-48
2022/01/01 00:45:39;;;;;;;79.78;37.67;;;12.30;99.90;;;;;;5078972;28;20040;-47
2022/01/01 00:48:06;;;;;;;103.13;41.83;;;12.30;99.90;;;;;;5075024;28;20042;-48
2022/01/01 00:50:31;;;;;;;68.40;35.05;;;12.30;99.90;;;;;;5094956;28;20066;-46
2022/01/01 00:52:59;;;;;;;75.88;34.80;;;12.20;99.90;;;;;;5077839;28;20041;-47
2022/01/01 00:55:25;;;;;;;;;;;;;;;;;;5070393;28;20047;-47
2022/01/01 00:57:51;;;;;;;150.18;84.20;;;12.00;99.90;;;;;;5085524;28;20062;-45
2022/01/01 01:00:17;;;;;;;61.20;32.72;;;;;;;;;;5081635;28;20125;-49
2022/01/01 01:02:43;;;;;;;52.13;28.98;;;;;;;;;;5063345;28;20122;-47
2022/01/01 01:05:09;;;;;;;53.35;28.95;;;11.60;99.90;;;;;;5069093;28;20040;-46
2022/01/01 01:07:36;;;;;;;53.25;28.05;;;11.60;99.90;;;;;;5057303;28;20040;-46
2022/01/01 01:10:05;;;;;;;47.00;27.20;;;11.50;99.90;;;;;;5066065;28;20059;-46
2022/01/01 01:12:40;;;;;;;45.35;26.15;;;11.30;99.90;;;;;;5073950;28;20036;-46
2022/01/01 01:15:10;;;;;;;48.63;25.60;;;11.30;99.90;;;;;;5085430;28;20145;-47
2022/01/01 01:17:36;;;;;;;45.70;25.00;;;11.20;99.90;;;;;;5063993;28;20039;-45
2022/01/01 01:20:05;;;;;;;47.45;23.10;;;11.10;99.90;;;;;;5070554;28;20036;-46
2022/01/01 01:22:31;;;;;;;47.30;24.10;;;11.00;99.90;;;;;;5077367;28;20049;-47
2022/01/01 01:24:59;;;;;;;41.90;22.08;;;11.00;99.90;;;;;;5083316;28;20048;-45
2022/01/01 01:27:25;;;;;;;46.80;23.85;;;10.90;99.90;;;;;;5062198;28;20119;-49
2022/01/01 01:29:51;;;;;;;50.53;24.90;;;10.80;99.90;;;;;;5044951;28;20048;-44
2022/01/01 01:32:17;;;;;;;51.83;26.55;;;10.70;99.90;;;;;;5068639;28;20413;-45
2022/01/01 01:34:43;;;;;;;48.55;24.48;;;10.60;99.90;;;;;;5086694;28;20186;-46
2022/01/01 01:37:08;;;;;;;43.53;21.25;;;10.60;99.90;;;;;;5068105;28;20070;-46
2022/01/01 01:39:34;;;;;;;45.95;19.63;;;10.50;99.90;;;;;;5064320;28;20050;-46
2022/01/01 01:42:00;;;;;;;45.88;18.45;;;10.50;99.90;;;;;;5055630;28;20052;-48
2022/01/01 01:44:33;;;;;;;39.08;16.67;;;10.40;99.90;;;;;;5061154;28;20048;-44
2022/01/01 01:47:02;;;;;;;40.25;16.77;;;10.30;99.90;;;;;;5058255;28;20482;-44
2022/01/01 01:49:29;;;;;;;42.22;16.20;;;10.30;99.90;;;;;;5066461;28;20077;-45
2022/01/01 01:51:56;;;;;;;36.88;15.90;;;10.20;99.90;;;;;;5079797;28;20180;-44
2022/01/01 01:54:22;;;;;;;45.10;15.85;;;10.20;99.90;;;;;;5075923;28;20405;-44
2022/01/01 01:56:48;;;;;;;39.80;15.30;;;10.10;99.90;;;;;;5045456;28;20513;-45
2022/01/01 01:59:15;;;;;;;48.10;16.70;;;10.10;99.90;;;;;;5082514;28;20079;-44
2022/01/01 02:01:41;;;;;;;39.53;17.45;;;10.00;99.90;;;;;;5065427;28;20040;-55
2022/01/01 02:04:07;;;;;;;47.60;16.75;;;10.00;99.90;;;;;;5060529;28;20036;-46
2022/01/01 02:06:35;;;;;;;39.20;16.73;;;10.00;99.90;;;;;;5085165;28;20048;-49
2022/01/01 02:09:00;;;;;;;;;;;9.90;99.90;;;;;;5059307;28;20044;-48
2022/01/01 02:11:27;;;;;;;47.67;18.73;;;9.90;99.90;;;;;;5041966;28;20381;-48
2022/01/01 02:16:32;;;;;;;54.47;20.20;;;9.90;99.90;;;;;;5096578;28;20496;-46
2022/01/01 02:18:58;;;;;;;50.60;20.63;;;9.90;99.90;;;;;;5081645;28;20336;-45
2022/01/01 02:21:24;;;;;;;51.50;20.90;;;9.90;99.90;;;;;;5083444;28;20359;-45
2022/01/01 02:23:57;;;;;;;53.60;21.17;;;9.90;99.90;;;;;;5047049;28;20051;-45
2022/01/01 02:26:29;;;;;;;55.67;22.38;;;9.90;99.90;;;;;;5074118;28;20098;-46
2022/01/01 02:28:55;;;;;;;72.07;22.75;;;9.90;99.90;;;;;;5084377;28;20081;-44
2022/01/01 02:31:21;;;;;;;56.67;24.73;;;10.00;99.90;;;;;;5065887;28;20036;-48
2022/01/01 02:33:46;;;;;;;73.35;29.17;;;10.00;99.90;;;;;;5082302;28;20028;-45
2022/01/01 02:36:12;;;;;;;68.10;28.85;;;10.10;99.90;;;;;;5080321;28;20490;-45
2022/01/01 02:38:38;;;;;;;68.93;28.73;;;10.10;99.90;;;;;;5077629;28;20044;-48
2022/01/01 02:41:05;;;;;;;71.15;30.45;;;10.10;99.90;;;;;;5070686;28;20117;-49
2022/01/01 02:43:34;;;;;;;81.28;32.33;;;10.20;99.90;;;;;;5057187;28;20396;-47
2022/01/01 02:45:59;;;;;;;85.22;31.15;;;10.20;99.90;;;;;;5045511;28;20390;-47
2022/01/01 02:48:26;;;;;;;72.82;31.17;;;10.20;99.90;;;;;;5082382;28;20127;-45
2022/01/01 02:50:52;;;;;;;81.87;29.90;;;10.20;99.90;;;;;;5067844;28;20039;-45
2022/01/01 02:53:18;;;;;;;75.95;32.13;;;10.30;99.90;;;;;;5061388;28;20211;-45
2022/01/01 02:55:45;;;;;;;88.13;33.45;;;10.30;99.90;;;;;;5073068;28;20118;-48
2022/01/01 02:58:13;;;;;;;85.05;32.40;;;10.30;99.90;;;;;;5043938;28;20336;-47
2022/01/01 03:00:40;;;;;;;81.57;32.92;;;10.30;99.90;;;;;;5091191;27;20283;-44
2022/01/01 03:03:06;;;;;;;75.80;32.65;;;10.30;99.90;;;;;;5050426;28;20474;-46
2022/01/01 03:05:33;;;;;;;80.10;32.45;;;10.30;99.90;;;;;;5059680;28;20043;-44
2022/01/01 03:08:00;;;;;;;70.15;30.50;;;10.30;99.90;;;;;;5082143;28;20052;-47
2022/01/01 03:10:26;;;;;;;93.85;32.58;;;10.30;99.90;;;;;;5067989;28;20040;-48
2022/01/01 03:12:52;;;;;;;80.80;28.05;;;10.30;99.90;;;;;;5065602;28;20484;-46
2022/01/01 03:15:18;;;;;;;72.72;28.30;;;10.40;99.90;;;;;;5061912;28;20044;-45
2022/01/01 03:17:44;;;;;;;67.20;27.05;;;10.30;99.90;;;;;;5080549;28;20481;-45
2022/01/01 03:20:11;;;;;;;77.22;26.30;;;10.40;99.90;;;;;;5059925;28;20041;-46
2022/01/01 03:22:37;;;;;;;72.22;26.75;;;10.40;99.90;;;;;;5058626;28;20039;-44
2022/01/01 03:25:03;;;;;;;68.78;26.80;;;10.40;99.90;;;;;;5086178;28;20054;-48
2022/01/01 03:27:30;;;;;;;70.85;24.90;;;10.40;99.90;;;;;;5077002;28;20194;-45
2022/01/01 03:29:56;;;;;;;74.00;26.10;;;10.40;99.90;;;;;;5061723;28;20052;-46
2022/01/01 03:32:22;;;;;;;86.72;28.55;;;10.40;99.90;;;;;;5063133;28;20056;-45
2022/01/01 03:34:48;;;;;;;65.65;27.33;;;10.40;99.90;;;;;;5078411;28;20120;-46
2022/01/01 03:37:15;;;;;;;70.35;27.23;;;10.40;99.90;;;;;;5063825;28;20048;-46
2022/01/01 03:39:41;;;;;;;75.57;28.15;;;10.40;99.90;;;;;;5076162;28;20039;-45
2022/01/01 03:42:07;;;;;;;68.75;27.27;;;10.40;99.90;;;;;;5063186;28;20049;-46
2022/01/01 03:44:33;;;;;;;85.28;28.55;;;10.40;99.90;;;;;;5098618;28;20071;-44
2022/01/01 03:47:09;;;;;;;78.68;29.58;;;10.40;99.90;;;;;;5091859;28;20520;-44
2022/01/01 03:49:36;;;;;;;76.97;27.45;;;10.40;99.90;;;;;;5084174;28;20039;-45
2022/01/01 03:52:15;;;;;;;78.85;26.88;;;10.40;99.90;;;;;;5079907;28;20038;-45
2022/01/01 03:54:41;;;;;;;73.05;27.15;;;10.30;99.90;;;;;;5090819;28;20055;-45
2022/01/01 03:57:06;;;;;;;67.60;27.67;;;10.30;99.90;;;;;;5091593;28;20114;-48
2022/01/01 03:59:34;;;;;;;74.07;27.20;;;10.40;99.90;;;;;;5073019;28;20097;-44
2022/01/01 04:02:00;;;;;;;77.60;26.52;;;10.30;99.90;;;;;;5103194;28;20035;-45
2022/01/01 04:04:27;;;;;;;67.60;26.23;;;10.30;99.90;;;;;;5070796;28;20047;-46
2022/01/01 04:06:54;;;;;;;55.00;26.40;;;10.30;99.90;;;;;;5080331;28;20052;-44
2022/01/01 04:09:20;;;;;;;75.80;27.40;;;10.30;99.90;;;;;;5114231;27;20047;-44
2022/01/01 04:11:45;;;;;;;78.18;24.88;;;10.30;99.90;;;;;;5071952;28;20047;-44
2022/01/01 04:14:14;;;;;;;66.28;24.75;;;10.30;99.90;;;;;;5097230;28;20089;-45
2022/01/01 04:16:41;;;;;;;64.75;24.67;;;10.30;99.90;;;;;;5091956;28;20036;-44
2022/01/01 04:19:08;;;;;;;74.97;25.45;;;10.30;99.90;;;;;;5080656;28;20047;-46
2022/01/01 04:21:35;;;;;;;70.93;23.50;;;10.30;99.90;;;;;;5058049;28;20118;-45
2022/01/01 04:24:02;;;;;;;63.38;24.30;;;10.30;99.90;;;;;;5104532;28;20039;-46
2022/01/01 04:26:28;;;;;;;59.30;22.33;;;10.30;99.90;;;;;;5101966;28;20039;-44
2022/01/01 04:28:54;;;;;;;51.27;22.43;;;10.20;99.90;;;;;;5101321;28;20044;-45
2022/01/01 04:31:20;;;;;;;59.10;22.40;;;10.20;99.90;;;;;;5081439;28;20382;-45
2022/01/01 04:33:46;;;;;;;47.97;21.60;;;10.20;99.90;;;;;;5042050;28;20035;-46
2022/01/01 04:36:13;;;;;;;68.00;23.60;;;10.20;99.90;;;;;;5082339;28;20043;-44
2022/01/01 04:38:42;;;;;;;71.63;24.03;;;10.20;99.90;;;;;;5084958;28;20047;-44
2022/01/01 04:41:11;;;;;;;54.92;22.27;;;10.20;99.90;;;;;;5102487;28;20297;-45
2022/01/01 04:43:38;;;;;;;58.35;22.13;;;10.20;99.90;;;;;;5096559;28;20043;-48
2022/01/01 04:46:04;;;;;;;63.78;23.13;;;10.20;99.90;;;;;;5064517;28;20086;-46
2022/01/01 04:48:36;;;;;;;69.03;22.20;;;10.20;99.90;;;;;;5099246;28;20054;-44
2022/01/01 04:51:07;;;;;;;56.92;21.80;;;10.20;99.90;;;;;;5064022;28;20592;-44
2022/01/01 04:53:39;;;;;;;61.17;23.23;;;10.30;99.90;;;;;;5098191;28;20040;-45
2022/01/01 04:56:07;;;;;;;60.25;23.02;;;10.20;99.90;;;;;;5094545;28;20124;-46
2022/01/01 04:58:34;;;;;;;70.22;25.42;;;10.20;99.90;;;;;;5082775;28;20055;-45
2022/01/01 05:01:00;;;;;;;65.13;25.30;;;10.20;99.90;;;;;;5096752;28;20035;-47
2022/01/01 05:03:26;;;;;;;66.25;25.15;;;10.20;99.90;;;;;;5081297;28;20080;-46
2022/01/01 05:05:52;;;;;;;66.90;25.98;;;10.20;99.90;;;;;;5080147;28;20470;-45
2022/01/01 05:08:17;;;;;;;66.82;27.00;;;10.20;99.90;;;;;;5093120;28;20043;-47
2022/01/01 05:10:43;;;;;;;63.90;26.23;;;10.20;99.90;;;;;;5083722;28;20048;-48
2022/01/01 05:13:09;;;;;;;65.32;27.88;;;10.20;99.90;;;;;;5060048;28;20437;-45
2022/01/01 05:15:35;;;;;;;60.03;25.77;;;10.20;99.90;;;;;;5100119;28;20050;-44
2022/01/01 05:18:01;;;;;;;66.13;27.15;;;10.20;99.90;;;;;;5098263;28;20044;-44
2022/01/01 05:20:27;;;;;;;64.45;28.05;;;10.20;99.90;;;;;;5101202;28;20036;-46
2022/01/01 05:22:53;;;;;;;61.25;27.13;;;10.20;99.90;;;;;;5085830;28;20111;-46
2022/01/01 05:25:19;;;;;;;68.90;30.25;;;10.30;99.90;;;;;;5082480;28;20108;-44
2022/01/01 05:27:45;;;;;;;67.22;29.77;;;10.20;99.90;;;;;;5095308;28;20063;-44
2022/01/01 05:30:12;;;;;;;77.38;31.88;;;10.20;99.90;;;;;;5083456;28;20134;-44
2022/01/01 05:32:38;;;;;;;79.47;34.92;;;10.30;99.90;;;;;;5072963;28;20101;-44
2022/01/01 05:35:05;;;;;;;79.65;35.35;;;10.20;99.90;;;;;;5084591;28;20048;-44
2022/01/01 05:37:30;;;;;;;86.80;36.45;;;10.30;99.90;;;;;;5072219;28;20047;-44
2022/01/01 05:39:57;;;;;;;81.90;38.45;;;10.30;99.90;;;;;;5100084;28;20380;-45
2022/01/01 05:42:22;;;;;;;93.90;40.58;;;10.30;99.90;;;;;;5078168;28;20481;-44
2022/01/01 05:44:49;;;;;;;104.63;45.30;;;10.30;99.90;;;;;;5081861;28;20116;-44
2022/01/01 05:47:15;;;;;;;105.18;47.17;;;10.30;99.90;;;;;;5098575;27;20047;-45
2022/01/01 05:49:42;;;;;;;112.95;47.80;;;10.30;99.90;;;;;;5104102;28;20036;-44
2022/01/01 05:52:08;;;;;;;104.00;45.65;;;10.30;99.90;;;;;;5115351;27;20092;-44
2022/01/01 05:54:34;;;;;;;97.70;45.65;;;10.30;99.90;;;;;;5074725;28;20436;-45
2022/01/01 05:57:00;;;;;;;108.10;47.55;;;10.30;99.90;;;;;;5102646;28;20442;-44
2022/01/01 05:59:26;;;;;;;107.80;45.58;;;10.30;99.90;;;;;;5103730;28;20323;-44
2022/01/01 06:01:52;;;;;;;96.75;43.33;;;10.30;99.90;;;;;;5081694;28;20081;-45
2022/01/01 06:04:18;;;;;;;79.55;40.40;;;10.30;99.90;;;;;;5115039;27;20142;-44
2022/01/01 06:06:44;;;;;;;92.45;40.00;;;10.30;99.90;;;;;;5069368;28;20097;-45
2022/01/01 06:09:10;;;;;;;90.43;40.78;;;10.30;99.90;;;;;;5098265;27;20039;-46
2022/01/01 06:11:36;;;;;;;89.65;37.17;;;10.30;99.90;;;;;;5066846;28;20032;-45
2022/01/01 06:14:02;;;;;;;77.90;35.88;;;10.30;99.90;;;;;;5056489;28;20032;-45
2022/01/01 06:16:28;;;;;;;76.40;33.15;;;10.30;99.90;;;;;;5043831;28;20047;-44
2022/01/01 06:18:54;;;;;;;64.95;30.45;;;10.30;99.90;;;;;;5102421;28;20044;-44
2022/01/01 06:21:20;;;;;;;62.63;29.23;;;10.30;99.90;;;;;;5086597;28;20090;-46
2022/01/01 06:23:46;;;;;;;63.88;28.25;;;10.30;99.90;;;;;;5085872;28;20544;-44
2022/01/01 06:26:12;;;;;;;63.85;27.88;;;10.20;99.90;;;;;;5100328;28;20052;-45
2022/01/01 06:28:37;;;;;;;62.67;25.98;;;10.20;99.90;;;;;;5067584;28;20077;-45
2022/01/01 06:31:04;;;;;;;66.72;27.52;;;10.20;99.90;;;;;;5102157;28;20093;-46
2022/01/01 06:33:30;;;;;;;79.65;29.27;;;10.30;99.90;;;;;;5108090;27;20054;-43
2022/01/01 06:35:56;;;;;;;72.90;27.83;;;10.20;99.90;;;;;;5082813;28;20032;-44
2022/01/01 06:38:22;;;;;;;62.50;25.10;;;10.20;99.90;;;;;;5110365;27;20443;-44
2022/01/01 06:40:48;;;;;;;61.50;24.77;;;10.20;99.90;;;;;;5079257;28;20548;-44
2022/01/01 06:43:16;;;;;;;63.60;23.20;;;10.20;99.90;;;;;;5099212;27;20071;-45
2022/01/01 06:45:42;;;;;;;71.50;23.85;;;10.20;99.90;;;;;;5084804;28;20044;-45
2022/01/01 06:48:08;;;;;;;61.10;22.92;;;10.30;99.90;;;;;;5068212;28;20294;-44
2022/01/01 06:50:36;;;;;;;62.15;22.45;;;10.30;99.90;;;;;;5106225;28;20074;-46
2022/01/01 06:53:03;;;;;;;63.92;22.27;;;10.20;99.90;;;;;;5080361;28;20410;-44
2022/01/01 06:55:29;;;;;;;57.90;21.57;;;10.30;99.90;;;;;;5077199;28;20098;-45
2022/01/01 06:57:55;;;;;;;62.03;22.17;;;10.30;99.90;;;;;;5087462;28;20024;-44
2022/01/01 07:00:21;;;;;;;54.47;20.52;;;10.30;99.90;;;;;;5079404;28;20558;-48
2022/01/01 07:02:48;;;;;;;61.27;21.90;;;10.30;99.90;;;;;;5093136;28;20036;-46
2022/01/01 07:05:15;;;;;;;64.10;20.80;;;10.30;99.90;;;;;;5095093;28;20054;-44
2022/01/01 07:07:41;;;;;;;;;;;10.30;99.90;;;;;;5100878;28;20454;-44
2022/01/01 07:10:10;;;;;;;60.20;21.10;;;10.30;99.90;;;;;;5100937;28;19943;-44
2022/01/01 07:12:38;;;;;;;63.90;19.92;;;10.30;99.90;;;;;;5081068;28;20035;-46
2022/01/01 07:15:06;;;;;;;51.53;20.30;;;10.30;99.90;;;;;;5100343;28;20055;-44
2022/01/01 07:17:32;;;;;;;52.25;19.35;;;10.30;99.90;;;;;;5079104;28;20482;-44
2022/01/01 07:19:58;;;;;;;47.40;17.83;;;10.30;99.90;;;;;;5077422;28;20043;-45
2022/01/01 07:22:24;;;;;;;48.65;17.90;;;10.30;99.90;;;;;;5080399;28;20082;-45
2022/01/01 07:24:50;;;;;;;60.30;19.33;;;10.40;99.90;;;;;;5068199;28;20047;-45
2022/01/01 07:27:17;;;;;;;52.60;19.38;;;10.30;99.90;;;;;;5085936;28;20043;-44
2022/01/01 07:29:43;;;;;;;58.03;19.52;;;10.40;99.90;;;;;;5098536;28;20082;-44
2022/01/01 07:32:09;;;;;;;62.00;19.65;;;10.40;99.90;;;;;;5076957;28;20051;-45
2022/01/01 07:34:35;;;;;;;51.28;18.17;;;10.40;99.90;;;;;;5106713;27;20063;-44
2022/01/01 07:37:02;;;;;;;45.10;18.20;;;10.40;99.90;;;;;;5101326;28;20040;-44
2022/01/01 07:39:28;;;;;;;54.28;18.80;;;10.40;99.90;;;;;;5083460;28;20387;-45
2022/01/01 07:41:54;;;;;;;49.15;18.17;;;10.40;99.90;;;;;;5102027;28;20055;-45
2022/01/01 07:44:20;;;;;;;51.13;18.30;;;10.40;99.90;;;;;;5078230;28;20032;-44
2022/01/01 07:46:46;;;;;;;51.83;17.73;;;10.40;99.90;;;;;;5078397;28;20043;-44
2022/01/01 07:49:12;;;;;;;55.60;18.40;;;10.50;99.90;;;;;;5067937;28;20044;-46
2022/01/01 07:51:38;;;;;;;55.55;18.02;;;10.50;99.90;;;;;;5109903;27;20044;-46
2022/01/01 07:54:04;;;;;;;54.17;18.65;;;10.40;99.90;;;;;;5072650;28;20038;-46
2022/01/01 07:56:30;;;;;;;47.08;17.50;;;10.50;99.90;;;;;;5104696;28;20054;-45
2022/01/01 07:58:57;;;;;;;50.35;18.88;;;10.50;99.90;;;;;;5084284;28;20035;-46
2022/01/01 08:01:23;;;;;;;47.90;18.52;;;10.50;99.90;;;;;;5039187;28;20044;-44
2022/01/01 08:03:49;;;;;;;54.25;18.95;;;10.50;99.90;;;;;;5098114;28;20058;-44
2022/01/01 08:06:16;;;;;;;61.65;22.98;;;10.50;99.90;;;;;;5080363;28;20044;-44
2022/01/01 08:08:42;;;;;;;59.05;23.25;;;10.60;99.90;;;;;;5098609;28;20122;-45
2022/01/01 08:11:08;;;;;;;71.93;25.35;;;10.50;99.90;;;;;;5084072;28;20126;-47
2022/01/01 08:13:35;;;;;;;61.25;23.70;;;10.60;99.90;;;;;;5064378;28;20542;-44
2022/01/01 08:16:02;;;;;;;;;;;10.60;99.90;;;;;;5098464;28;20055;-44
2022/01/01 08:18:29;;;;;;;61.13;21.58;;;10.60;99.90;;;;;;5103079;28;19935;-45
2022/01/01 08:20:56;;;;;;;56.08;21.80;;;10.60;99.90;;;;;;5082235;28;20077;-44
2022/01/01 08:23:22;;;;;;;67.18;23.02;;;10.60;99.90;;;;;;5072961;28;20039;-45
2022/01/01 08:25:48;;;;;;;60.65;22.73;;;10.70;99.90;;;;;;5066029;28;20418;-44
2022/01/01 08:28:14;;;;;;;60.33;22.42;;;10.70;99.90;;;;;;5086984;28;20043;-47
2022/01/01 08:30:40;;;;;;;56.45;21.92;;;10.70;99.90;;;;;;5085043;28;20503;-44
2022/01/01 08:33:06;;;;;;;56.90;22.70;;;10.70;99.90;;;;;;5079010;28;20082;-45
2022/01/01 08:35:33;;;;;;;57.95;22.40;;;10.70;99.90;;;;;;5076027;28;20074;-44
2022/01/01 08:38:00;;;;;;;64.10;23.63;;;10.80;99.90;;;;;;5083324;28;20032;-46
2022/01/01 08:40:28;;;;;;;58.25;23.27;;;10.80;99.90;;;;;;5084135;28;20122;-44
2022/01/01 08:42:54;;;;;;;63.10;23.15;;;10.80;99.90;;;;;;5099487;28;20051;-44
2022/01/01 08:45:21;;;;;;;69.32;24.80;;;10.80;99.90;;;;;;5116286;27;20724;-44
2022/01/01 08:47:47;;;;;;;71.60;26.13;;;10.90;99.90;;;;;;5069549;28;20039;-45
2022/01/01 08:50:13;;;;;;;67.78;27.77;;;10.90;99.90;;;;;;5085787;28;20044;-45
2022/01/01 08:52:40;;;;;;;84.80;30.27;;;10.90;99.90;;;;;;5116727;28;20063;-44
2022/01/01 08:55:07;;;;;;;59.97;25.87;;;10.90;99.90;;;;;;5065127;28;20097;-45
2022/01/01 08:57:33;;;;;;;68.10;26.40;;;10.90;99.90;;;;;;5086960;28;20449;-46
2022/01/01 09:00:01;;;;;;;53.08;24.08;;;11.00;99.90;;;;;;5084567;28;20059;-44
2022/01/01 09:02:27;;;;;;;63.78;25.70;;;11.00;99.90;;;;;;5104910;28;20119;-45
2022/01/01 09:04:54;;;;;;;69.97;29.77;;;11.00;99.90;;;;;;5101868;28;20086;-45
2022/01/01 09:07:27;;;;;;;70.53;31.75;;;11.10;99.90;;;;;;5102055;28;20042;-45
2022/01/01 09:09:54;;;;;;;74.03;30.55;;;11.10;99.90;;;;;;5085521;28;20395;-45
2022/01/01 09:12:20;;;;;;;80.70;31.75;;;11.10;99.90;;;;;;5104231;28;20147;-45
2022/01/01 09:14:46;;;;;;;67.63;29.50;;;11.20;99.90;;;;;;5087230;28;20036;-45
2022/01/01 09:17:12;;;;;;;72.63;27.60;;;11.20;99.90;;;;;;5071270;28;20087;-50
2022/01/01 09:19:38;;;;;;;57.50;24.98;;;11.30;99.90;;;;;;5090175;28;20193;-44
2022/01/01 09:22:04;;;;;;;51.28;24.27;;;11.30;99.90;;;;;;5090015;28;20053;-47
2022/01/01 09:24:30;;;;;;;60.42;24.60;;;11.40;99.90;;;;;;5105738;28;20046;-47
2022/01/01 09:26:56;;;;;;;62.10;24.67;;;11.40;99.90;;;;;;5106280;28;20530;-48
2022/01/01 09:29:22;;;;;;;51.67;23.77;;;11.40;99.90;;;;;;5085127;28;20046;-45
2022/01/01 09:31:50;;;;;;;57.75;23.77;;;11.40;99.90;;;;;;5085790;28;20032;-48
2022/01/01 09:34:25;;;;;;;52.97;25.33;;;11.50;99.90;;;;;;5100387;28;20050;-49
2022/01/01 09:36:54;;;;;;;54.63;25.92;;;;;;;;;;5101776;28;20036;-48
2022/01/01 09:39:20;;;;;;;44.92;23.55;;;11.50;99.90;;;;;;5118642;27;20118;-48
2022/01/01 09:41:46;;;;;;;50.45;24.40;;;;;;;;;;5070577;28;20573;-45
2022/01/01 09:44:17;;;;;;;56.35;24.88;;;;;;;;;;5088323;28;20270;-45
2022/01/01 09:46:44;;;;;;;53.50;24.75;;;;;;;;;;5086325;28;20053;-46
2022/01/01 09:49:14;;;;;;;44.45;23.33;;;11.90;99.90;;;;;;5112334;27;20458;-46
2022/01/01 09:51:43;;;;;;;52.47;24.10;;;11.80;99.90;;;;;;5103133;28;20353;-48
2022/01/01 09:54:11;;;;;;;45.42;23.00;;;11.80;99.90;;;;;;5077128;28;20046;-49
2022/01/01 09:56:37;;;;;;;;;;;11.80;99.90;;;;;;5063696;28;20144;-45
2022/01/01 09:59:05;;;;;;;48.05;23.98;;;11.80;99.90;;;;;;5084347;28;20372;-45
2022/01/01 10:01:42;;;;;;;49.35;23.92;;;11.90;99.90;;;;;;5105832;28;20107;-48
2022/01/01 10:04:15;;;;;;;41.85;21.65;;;11.90;99.90;;;;;;5104744;28;20429;-47
2022/01/01 10:06:45;;;;;;;39.10;20.75;;;11.90;99.90;;;;;;5071384;28;20043;-46
2022/01/01 10:09:18;;;;;;;39.03;20.80;;;12.00;99.90;;;;;;5070559;28;20426;-46
2022/01/01 10:11:47;;;;;;;43.80;20.52;;;12.00;99.90;;;;;;5119768;27;20070;-48
2022/01/01 10:14:15;;;;;;;44.90;19.27;;;12.00;99.90;;;;;;5086683;28;20226;-46
2022/01/01 10:16:44;;;;;;;41.85;19.83;;;12.00;99.90;;;;;;5081375;28;20071;-44
2022/01/01 10:19:13;;;;;;;36.97;18.92;;;12.00;99.90;;;;;;5068967;28;20518;-48
2022/01/01 10:21:41;;;;;;;40.30;17.98;;;12.10;99.90;;;;;;5083299;28;20048;-44
2022/01/01 10:24:19;;;;;;;40.35;19.08;;;12.10;99.90;;;;;;5083594;28;20031;-45
2022/01/01 10:29:40;;;;;;;40.13;17.67;;;12.10;99.90;;;;;;5072504;28;20119;-45
2022/01/01 10:32:11;;;;;;;36.03;17.75;;;12.20;99.90;;;;;;5084290;28;20071;-48
2022/01/01 10:34:46;;;;;;;30.73;15.73;;;12.20;99.90;;;;;;5086599;28;20395;-45
2022/01/01 10:37:14;;;;;;;32.20;16.23;;;12.10;99.90;;;;;;5104545;28;20039;-46
2022/01/01 10:39:50;;;;;;;31.15;16.33;;;12.20;99.90;;;;;;5110721;27;20043;-44
2022/01/01 10:42:17;;;;;;;31.15;15.35;;;12.20;99.90;;;;;;5111095;27;20056;-47
2022/01/01 10:44:51;;;;;;;31.77;15.82;;;12.20;99.90;;;;;;5062676;28;20048;-43
2022/01/01 10:47:25;;;;;;;29.20;15.65;;;12.30;99.90;;;;;;5082706;28;20039;-45
2022/01/01 10:50:14;;;;;;;27.17;14.60;;;12.30;99.90;;;;;;5083807;28;20454;-47
2022/01/01 10:52:37;;;;;;;29.73;14.27;;;12.30;99.90;;;;;;5074048;28;20056;-45
2022/01/01 10:55:06;;;;;;;27.42;14.00;;;12.30;99.90;;;;;;5094390;28;20056;-46
2022/01/01 10:57:41;;;;;;;24.52;13.80;;;12.30;99.90;;;;;;5100224;28;20040;-45
2022/01/01 11:00:20;;;;;;;26.88;13.57;;;12.30;99.90;;;;;;5083056;28;20040;-45
2022/01/01 11:02:55;;;;;;;30.73;13.82;;;12.30;99.90;;;;;;5078319;28;20036;-45
2022/01/01 11:05:32;;;;;;;29.67;13.93;;;12.30;99.90;;;;;;5083610;28;20056;-47
2022/01/01 11:07:59;;;;;;;24.95;13.60;;;12.30;99.90;;;;;;5077083;28;20379;-43
2022/01/01 11:10:27;;;;;;;;;;;12.30;99.90;;;;;;5054229;28;20041;-44
2022/01/01 11:12:55;;;;;;;27.13;13.88;;;12.20;99.90;;;;;;5085561;28;19923;-46
2022/01/01 11:15:21;;;;;;;26.10;13.10;;;12.30;99.90;;;;;;5086976;28;20056;-46
2022/01/01 11:17:49;;;;;;;24.60;12.57;;;12.30;99.90;;;;;;5042567;28;20037;-46
2022/01/01 11:20:15;;;;;;;;;;;12.30;99.90;;;;;;5058449;28;20137;-46
2022/01/01 11:22:44;;;;;;;25.13;12.50;;;12.30;99.90;;;;;;5065048;28;20026;-45
2022/01/01 11:25:11;;;;;;;25.83;12.07;;;12.30;99.90;;;;;;5082894;28;20036;-44
2022/01/01 11:27:40;;;;;;;22.45;11.40;;;12.30;99.90;;;;;;5073186;28;20036;-44
2022/01/01 11:30:08;;;;;;;26.52;12.25;;;12.30;99.90;;;;;;5060843;28;20036;-48
2022/01/01 11:32:40;;;;;;;25.70;12.57;;;12.30;99.90;;;;;;5054157;28;20044;-44
2022/01/01 11:35:18;;;;;;;24.67;12.18;;;12.30;99.90;;;;;;5087238;28;20072;-49
2022/01/01 11:37:58;;;;;;;26.45;12.20;;;12.30;99.90;;;;;;5077826;28;20036;-45
2022/01/01 11:40:25;;;;;;;22.65;12.88;;;12.30;99.90;;;;;;5073393;28;20048;-45
2022/01/01 11:42:51;;;;;;;30.48;17.63;;;12.30;99.90;;;;;;5065850;28;20051;-49
2022/01/01 11:45:45;;;;;;;27.60;19.40;;;12.30;99.90;;;;;;5061633;28;20046;-44
2022/01/01 11:48:33;;;;;;;29.52;19.27;;;12.40;99.90;;;;;;5085201;28;20039;-48
2022/01/01 11:51:18;;;;;;;23.42;13.10;;;12.40;99.90;;;;;;5084470;28;20049;-45
2022/01/01 11:54:06;;;;;;;22.75;11.82;;;12.40;99.90;;;;;;5057828;28;21333;-44
2022/01/01 11:56:50;;;;;;;21.15;11.57;;;12.40;99.90;;;;;;5064253;28;20094;-44
2022/01/01 11:59:33;;;;;;;22.95;9.77;;;12.40;99.90;;;;;;5058170;28;20040;-43
2022/01/01 12:02:04;;;;;;;25.42;10.70;;;12.40;99.90;;;;;;5071224;28;20047;-44
2022/01/01 12:04:31;;;;;;;17.85;9.80;;;12.40;99.90;;;;;;5087163;28;20088;-45
2022/01/01 12:07:19;;;;;;;19.25;9.13;;;12.40;99.90;;;;;;5073990;28;20036;-45
2022/01/01 12:10:06;;;;;;;22.55;8.77;;;12.40;99.90;;;;;;5052331;28;20047;-47
2022/01/01 12:12:41;;;;;;;17.98;9.20;;;12.40;99.90;;;;;;5065410;28;20044;-46
2022/01/01 12:15:22;;;;;;;27.55;15.95;;;12.50;99.90;;;;;;5088826;28;20137;-46
2022/01/01 12:17:49;;;;;;;19.48;10.10;;;12.40;99.90;;;;;;5055563;28;20500;-47
2022/01/01 12:20:17;;;;;;;16.40;10.00;;;12.50;99.90;;;;;;5055344;28;20032;-45
2022/01/01 12:22:47;;;;;;;16.17;8.38;;;12.50;99.90;;;;;;5055844;28;20063;-46
2022/01/01 12:25:16;;;;;;;14.63;7.10;;;12.50;99.90;;;;;;5060310;28;20044;-44
2022/01/01 12:27:47;;;;;;;20.08;8.43;;;12.40;99.90;;;;;;5069098;28;20220;-47
2022/01/01 12:30:15;;;;;;;16.67;7.25;;;12.50;99.90;;;;;;5065640;28;20043;-47
2022/01/01 12:32:46;;;;;;;17.33;7.50;;;12.50;99.90;;;;;;5080291;28;20058;-44
2022/01/01 12:35:18;;;;;;;21.90;8.50;;;12.40;99.90;;;;;;5076689;28;20051;-44
2022/01/01 12:37:44;;;;;;;15.70;9.60;;;12.40;99.90;;;;;;5045293;28;20039;-45
2022/01/01 12:40:11;;;;;;;11.63;7.18;;;12.40;99.90;;;;;;5047713;28;20067;-45